createdAt,value
2019-02-04T00:03:20.897Z,100246.10
2019-02-04T00:07:28.748Z,100254.40
2019-02-04T00:11:36.729Z,100256.64
2019-02-04T00:15:44.917Z,100260.22
2019-02-04T00:19:52.936Z,100265.64
2019-02-04T00:24:00.622Z,100272.28
2019-02-04T00:28:08.373Z,100268.39
2019-02-04T00:32:16.205Z,100275.45
2019-02-04T00:36:24.552Z,100267.98
2019-02-04T00:40:32.307Z,100279.03
2019-02-04T00:44:40.266Z,100277.34
2019-02-04T00:48:47.808Z,100281.86
2019-02-04T00:52:55.972Z,100280.08
2019-02-04T00:57:04.299Z,100280.56
2019-02-04T01:01:12.053Z,100281.27
2019-02-04T01:05:20.828Z,100277.92
2019-02-04T01:09:28.782Z,100281.25
2019-02-04T01:13:36.686Z,100278.14
2019-02-04T01:17:45.366Z,100282.92
2019-02-04T01:21:54.262Z,100286.61
2019-02-04T01:26:02.003Z,100285.95
2019-02-04T01:30:10.355Z,100284.25
2019-02-04T01:34:18.278Z,100287.70
2019-02-04T01:38:26.180Z,100292.59
2019-02-04T01:42:34.174Z,100295.83
2019-02-04T01:46:41.886Z,100303.20
2019-02-04T01:50:49.728Z,100303.20
2019-02-04T01:54:57.418Z,100304.34
2019-02-04T01:59:05.336Z,100304.53
2019-02-04T02:03:13.235Z,100307.19
2019-02-04T02:07:21.156Z,100305.34
2019-02-04T02:11:29.436Z,100310.30
2019-02-04T02:15:37.344Z,100312.05
2019-02-04T02:19:45.251Z,100314.50
2019-02-04T02:23:53.225Z,100312.03
2019-02-04T02:28:00.951Z,100322.84
2019-02-04T02:32:08.844Z,100318.73
2019-02-04T02:36:16.754Z,100316.14
2019-02-04T02:40:27.275Z,100324.09
2019-02-04T02:44:34.772Z,100322.81
2019-02-04T02:48:42.456Z,100328.27
2019-02-04T02:52:50.175Z,100334.30
2019-02-04T02:56:58.070Z,100327.66
2019-02-04T03:01:06.167Z,100328.28
2019-02-04T03:05:15.176Z,100321.61
2019-02-04T03:09:22.664Z,100325.67
2019-02-04T03:13:30.580Z,100324.05
2019-02-04T03:17:51.113Z,100326.32
2019-02-04T03:21:49.049Z,100326.20
2019-02-04T03:25:57.149Z,100322.63
2019-02-04T03:30:07.279Z,100325.19
2019-02-04T03:34:15.187Z,100328.23
2019-02-04T03:38:23.132Z,100331.25
2019-02-04T03:42:31.026Z,100336.45
2019-02-04T03:46:39.029Z,100332.70
2019-02-04T03:50:46.960Z,100346.03
2019-02-04T03:54:54.660Z,100336.92
2019-02-04T03:59:04.538Z,100344.31
2019-02-04T04:03:12.327Z,100352.39
2019-02-04T04:07:20.105Z,100349.86
2019-02-04T04:11:28.038Z,100363.38
2019-02-04T04:15:35.543Z,100359.96
2019-02-04T04:19:43.326Z,100361.99
2019-02-04T04:23:51.034Z,100359.96
2019-02-04T04:27:58.948Z,100360.25
2019-02-04T04:32:06.455Z,100368.81
2019-02-04T04:36:14.388Z,100367.12
2019-02-04T04:40:22.193Z,100368.12
2019-02-04T04:44:30.113Z,100372.67
2019-02-04T04:48:37.639Z,100378.95
2019-02-04T04:52:45.557Z,100381.11
2019-02-04T04:56:53.472Z,100384.84
2019-02-04T05:01:01.186Z,100394.62
2019-02-04T05:05:10.039Z,100397.16
2019-02-04T05:09:17.750Z,100398.53
2019-02-04T05:13:25.245Z,100400.86
2019-02-04T05:17:32.941Z,100405.02
2019-02-04T05:21:40.686Z,100421.27
2019-02-04T05:25:48.598Z,100419.66
2019-02-04T05:29:56.512Z,100418.72
2019-02-04T05:34:04.576Z,100410.32
2019-02-04T05:38:12.478Z,100418.30
2019-02-04T05:42:20.491Z,100426.73
2019-02-04T05:46:29.422Z,100432.09
2019-02-04T05:50:37.321Z,100437.89
2019-02-04T05:54:45.090Z,100442.30
2019-02-04T05:58:52.796Z,100444.55
2019-02-04T06:03:00.489Z,100445.12
2019-02-04T06:07:08.215Z,100454.30
2019-02-04T06:11:15.931Z,100456.48
2019-02-04T06:15:23.916Z,100457.24
2019-02-04T06:19:31.619Z,100465.06
2019-02-04T06:23:39.544Z,100468.84
2019-02-04T06:27:47.444Z,100473.50
2019-02-04T06:31:55.186Z,100472.98
2019-02-04T06:36:03.112Z,100479.66
2019-02-04T06:40:12.252Z,100478.38
2019-02-04T06:44:19.981Z,100478.60
2019-02-04T06:48:27.801Z,100480.25
2019-02-04T06:52:35.718Z,100487.16
2019-02-04T06:56:43.642Z,100487.69
2019-02-04T07:00:51.649Z,100486.56
2019-02-04T07:04:59.577Z,100481.19
2019-02-04T07:09:11.279Z,100482.90
2019-02-04T07:13:18.977Z,100486.48
2019-02-04T07:17:26.694Z,100491.98
2019-02-04T07:21:34.618Z,100489.45
2019-02-04T07:25:42.542Z,100489.45
2019-02-04T07:29:50.112Z,100481.22
2019-02-04T07:33:57.831Z,100485.94
2019-02-04T07:38:05.670Z,100490.56
2019-02-04T07:42:13.639Z,100494.56
2019-02-04T07:46:21.152Z,100503.84
2019-02-04T07:50:29.077Z,100505.77
2019-02-04T07:54:36.663Z,100508.89
2019-02-04T07:58:44.176Z,100511.95
2019-02-04T08:02:52.410Z,100511.67
2019-02-04T08:07:00.115Z,100512.76
2019-02-04T08:11:07.851Z,100509.43
2019-02-04T08:15:18.328Z,100514.53
2019-02-04T08:19:26.253Z,100517.39
2019-02-04T08:23:34.646Z,100527.02
2019-02-04T08:27:42.679Z,100531.48
2019-02-04T08:31:50.926Z,100530.80
2019-02-04T08:35:58.538Z,100524.64
2019-02-04T08:40:07.265Z,100524.64
2019-02-04T08:44:14.785Z,100529.16
2019-02-04T08:48:22.723Z,100529.16
2019-02-04T08:52:30.439Z,100549.66
2019-02-04T08:56:38.349Z,100543.75
2019-02-04T09:00:46.280Z,100542.42
2019-02-04T09:04:53.801Z,100546.33
2019-02-04T09:09:01.519Z,100537.89
2019-02-04T09:13:10.386Z,100537.05
2019-02-04T09:17:18.789Z,100527.80
2019-02-04T09:21:26.682Z,100514.44
2019-02-04T09:25:34.609Z,100514.44
2019-02-04T09:29:42.328Z,100509.47
2019-02-04T09:33:50.247Z,100506.23
2019-02-04T09:37:58.190Z,100513.97
2019-02-04T09:42:06.590Z,100516.73
2019-02-04T09:46:14.520Z,100513.18
2019-02-04T09:50:23.204Z,100511.37
2019-02-04T09:54:30.918Z,100518.22
2019-02-04T09:58:38.438Z,100507.16
2019-02-04T10:02:46.487Z,100515.77
2019-02-04T10:06:55.441Z,100516.06
2019-02-04T10:11:03.019Z,100506.83
2019-02-04T10:15:13.639Z,100501.30
2019-02-04T10:19:21.658Z,100499.94
2019-02-04T10:23:29.413Z,100499.88
2019-02-04T10:27:37.445Z,100491.55
2019-02-04T10:31:45.428Z,100492.80
2019-02-04T10:35:53.552Z,100491.64
2019-02-04T10:40:01.012Z,100490.27
2019-02-04T10:44:08.734Z,100485.83
2019-02-04T10:48:16.331Z,100481.03
2019-02-04T10:52:24.232Z,100478.66
2019-02-04T10:56:32.259Z,100479.02
2019-02-04T11:00:41.053Z,100476.41
2019-02-04T11:04:48.814Z,100475.25
2019-02-04T11:08:56.835Z,100476.05
2019-02-04T11:13:09.535Z,100475.41
2019-02-04T11:17:17.568Z,100475.60
2019-02-04T11:21:25.152Z,100467.50
2019-02-04T11:25:33.004Z,100474.83
2019-02-04T11:29:41.321Z,100473.74
2019-02-04T11:33:49.297Z,100466.64
2019-02-04T11:37:57.409Z,100469.78
2019-02-04T11:42:05.711Z,100466.52
2019-02-04T11:46:13.579Z,100468.30
2019-02-04T11:50:21.345Z,100472.16
2019-02-04T11:54:29.256Z,100462.70
2019-02-04T11:58:37.457Z,100461.70
2019-02-04T12:02:45.439Z,100460.70
2019-02-04T12:06:53.200Z,100459.23
2019-02-04T12:11:14.715Z,100456.20
2019-02-04T12:15:23.669Z,100456.06
2019-02-04T12:19:31.684Z,100452.58
2019-02-04T12:23:39.488Z,100453.08
2019-02-04T12:27:47.204Z,100454.86
2019-02-04T12:31:55.393Z,100455.43
2019-02-04T12:36:03.297Z,100458.46
2019-02-04T12:40:12.213Z,100449.42
2019-02-04T12:44:20.131Z,100443.30
2019-02-04T12:48:28.260Z,100440.02
2019-02-04T12:52:36.545Z,100439.49
2019-02-04T12:56:44.333Z,100437.63
2019-02-04T13:00:52.127Z,100440.23
2019-02-04T13:04:59.775Z,100434.41
2019-02-04T13:09:09.889Z,100433.26
2019-02-04T13:13:20.625Z,100444.11
2019-02-04T13:17:28.578Z,100446.16
2019-02-04T13:21:45.066Z,100458.16
2019-02-04T13:25:45.513Z,100459.95
2019-02-04T13:29:53.033Z,100463.89
2019-02-04T13:34:00.946Z,100458.00
2019-02-04T13:38:08.576Z,100464.47
2019-02-04T13:42:16.134Z,100468.06
2019-02-04T13:46:24.276Z,100469.78
2019-02-04T13:50:31.875Z,100482.83
2019-02-04T13:54:39.519Z,100482.91
2019-02-04T13:58:47.417Z,100483.17
2019-02-04T14:02:59.364Z,100482.25
2019-02-04T14:07:05.432Z,100486.56
2019-02-04T14:11:13.341Z,100477.90
2019-02-04T14:15:21.601Z,100482.17
2019-02-04T14:19:29.112Z,100490.84
2019-02-04T14:23:36.867Z,100480.82
2019-02-04T14:27:47.401Z,100492.38
2019-02-04T14:31:55.369Z,100492.47
2019-02-04T14:36:03.077Z,100492.50
2019-02-04T14:40:18.948Z,100504.05
2019-02-04T14:44:45.808Z,100491.01
2019-02-04T14:49:32.853Z,100505.80
2019-02-04T14:54:22.043Z,100508.32
2019-02-04T14:59:03.003Z,100511.84
2019-02-04T15:03:34.430Z,100504.14
2019-02-04T15:08:33.405Z,100508.16
2019-02-04T15:13:09.088Z,100509.09
2019-02-04T15:18:05.098Z,100519.66
2019-02-04T15:23:08.541Z,100515.77
2019-02-04T15:27:58.758Z,100522.00
2019-02-04T15:32:41.574Z,100524.94
2019-02-04T15:37:35.542Z,100527.67
2019-02-04T15:42:08.991Z,100547.46
2019-02-04T15:47:09.706Z,100552.39
2019-02-04T15:51:28.754Z,100561.45
2019-02-04T15:55:36.374Z,100562.88
2019-02-04T15:59:44.297Z,100569.66
2019-02-04T16:03:52.222Z,100576.11
2019-02-04T16:08:00.285Z,100580.01
2019-02-04T16:12:08.197Z,100579.77
2019-02-04T16:16:16.308Z,100581.75
2019-02-04T16:20:25.322Z,100586.83
2019-02-04T16:24:34.005Z,100583.41
2019-02-04T16:28:42.879Z,100584.50
2019-02-04T16:32:52.960Z,100588.21
2019-02-04T16:37:00.375Z,100586.33
2019-02-04T16:41:08.102Z,100595.55
2019-02-04T16:45:17.693Z,100594.27
2019-02-04T16:49:25.720Z,100592.41
2019-02-04T16:53:33.664Z,100591.22
2019-02-04T16:57:41.486Z,100589.11
2019-02-04T17:01:49.405Z,100593.16
2019-02-04T17:05:56.941Z,100600.29
2019-02-04T17:10:06.680Z,100600.27
2019-02-04T17:14:14.275Z,100606.20
2019-02-04T17:18:22.016Z,100603.70
2019-02-04T17:22:29.776Z,100607.58
2019-02-04T17:26:37.728Z,100622.83
2019-02-04T17:30:45.455Z,100627.86
2019-02-04T17:34:54.105Z,100625.56
2019-02-04T17:39:02.049Z,100633.83
2019-02-04T17:43:11.513Z,100639.58
2019-02-04T17:47:19.246Z,100631.39
2019-02-04T17:51:31.826Z,100638.77
2019-02-04T17:55:38.196Z,100641.16
2019-02-04T17:59:47.280Z,100630.42
2019-02-04T18:03:56.628Z,100633.41
2019-02-04T18:08:05.927Z,100638.55
2019-02-04T18:12:13.873Z,100632.45
2019-02-04T18:16:22.113Z,100631.17
2019-02-04T18:20:29.888Z,100642.69
2019-02-04T18:24:39.004Z,100639.14
2019-02-04T18:28:47.910Z,100637.30
2019-02-04T18:32:56.005Z,100639.03
2019-02-04T18:37:04.892Z,100633.77
2019-02-04T18:41:12.811Z,100641.09
2019-02-04T18:45:23.316Z,100639.47
2019-02-04T18:49:31.366Z,100645.81
2019-02-04T18:53:39.826Z,100648.89
2019-02-04T18:57:48.083Z,100655.22
2019-02-04T19:01:55.822Z,100656.99
2019-02-04T19:06:06.431Z,100665.11
2019-02-04T19:10:16.767Z,100670.01
2019-02-04T19:14:25.439Z,100672.80
2019-02-04T19:18:33.444Z,100675.50
2019-02-04T19:22:43.715Z,100675.38
2019-02-04T19:26:54.005Z,100677.50
2019-02-04T19:31:05.988Z,100689.47
2019-02-04T19:35:13.951Z,100697.05
2019-02-04T19:39:21.897Z,100705.63
2019-02-04T19:43:29.744Z,100712.55
2019-02-04T19:47:37.488Z,100707.48
2019-02-04T19:51:45.518Z,100711.11
2019-02-04T19:55:53.157Z,100710.70
2019-02-04T20:00:02.848Z,100714.20
2019-02-04T20:04:11.248Z,100711.76
2019-02-04T20:08:19.102Z,100712.13
2019-02-04T20:12:27.351Z,100709.97
2019-02-04T20:16:36.027Z,100706.12
2019-02-04T20:20:43.966Z,100707.23
2019-02-04T20:24:51.490Z,100710.48
2019-02-04T20:28:59.722Z,100717.22
2019-02-04T20:33:10.876Z,100720.20
2019-02-04T20:37:18.926Z,100728.02
2019-02-04T20:41:26.894Z,100726.15
2019-02-04T20:45:35.043Z,100734.39
2019-02-04T20:49:42.800Z,100732.85
2019-02-04T20:53:50.824Z,100738.88
2019-02-04T20:57:58.492Z,100740.08
2019-02-04T21:02:06.300Z,100736.16
2019-02-04T21:06:14.038Z,100737.02
2019-02-04T21:10:22.614Z,100732.33
2019-02-04T21:14:30.346Z,100734.36
2019-02-04T21:18:38.289Z,100742.30
2019-02-04T21:22:46.177Z,100744.20
2019-02-04T21:26:54.105Z,100745.14
2019-02-04T21:31:02.052Z,100750.50
2019-02-04T21:35:10.324Z,100762.20
2019-02-04T21:39:17.857Z,100768.24
2019-02-04T21:43:25.786Z,100775.87
2019-02-04T21:47:33.708Z,100777.92
2019-02-04T21:51:41.219Z,100783.12
2019-02-04T21:55:49.144Z,100778.87
2019-02-04T21:59:57.053Z,100773.44
2019-02-04T22:04:05.269Z,100774.77
2019-02-04T22:08:13.257Z,100763.17
2019-02-04T22:12:21.455Z,100755.54
2019-02-04T22:16:29.173Z,100760.95
2019-02-04T22:20:37.381Z,100751.02
2019-02-04T22:24:45.895Z,100748.43
2019-02-04T22:28:53.810Z,100760.56
2019-02-04T22:33:01.859Z,100763.38
2019-02-04T22:37:10.953Z,100764.00
2019-02-04T22:41:18.889Z,100763.64
2019-02-04T22:45:27.382Z,100763.80
2019-02-04T22:49:35.265Z,100761.95
2019-02-04T22:53:43.172Z,100769.55
2019-02-04T22:57:51.182Z,100765.94
2019-02-04T23:01:59.779Z,100761.72
2019-02-04T23:06:07.577Z,100761.21
2019-02-04T23:10:15.626Z,100764.49
2019-02-04T23:14:23.546Z,100774.40
2019-02-04T23:18:31.459Z,100776.68
2019-02-04T23:22:39.068Z,100779.73
2019-02-04T23:26:46.873Z,100773.20
2019-02-04T23:30:54.879Z,100759.55
2019-02-04T23:35:02.380Z,100770.78
2019-02-04T23:39:11.414Z,100764.96
2019-02-04T23:43:19.093Z,100768.49
2019-02-04T23:47:26.801Z,100768.17
2019-02-04T23:51:34.797Z,100781.58
2019-02-04T23:55:42.504Z,100781.56
2019-02-04T23:59:50.408Z,100786.47
